createdAt,value
2018-05-06T02:44:55.372Z,32.50
2018-05-06T02:47:25.867Z,32.60
2018-05-06T02:49:55.655Z,32.60
2018-05-06T02:52:25.400Z,32.70
2018-05-06T02:54:55.212Z,32.70
2018-05-06T02:57:24.971Z,32.70
2018-05-06T02:59:55.030Z,32.70
2018-05-06T03:02:24.803Z,32.80
2018-05-06T03:04:56.104Z,33.00
2018-05-06T03:07:25.833Z,33.00
2018-05-06T03:09:56.386Z,32.70
2018-05-06T03:12:26.183Z,32.70
2018-05-06T03:14:56.767Z,32.10
2018-05-06T03:17:26.532Z,32.10
2018-05-06T03:19:56.264Z,31.90
2018-05-06T03:22:26.194Z,31.70
2018-05-06T03:24:55.999Z,31.50
2018-05-06T03:27:25.770Z,31.30
2018-05-06T03:29:55.758Z,31.10
2018-05-06T03:32:26.782Z,30.80
2018-05-06T03:34:56.562Z,30.80
2018-05-06T03:37:26.347Z,30.70
2018-05-06T03:39:56.629Z,30.70
2018-05-06T03:42:27.529Z,30.70
2018-05-06T03:44:57.252Z,30.70
2018-05-06T03:47:27.952Z,30.90
2018-05-06T03:49:58.451Z,31.60
2018-05-06T03:52:28.213Z,31.60
2018-05-06T03:54:58.808Z,31.60
2018-05-06T03:57:40.383Z,31.40
2018-05-06T04:00:21.428Z,31.50
2018-05-06T04:02:51.212Z,31.40
2018-05-06T04:05:21.004Z,31.20
2018-05-06T04:07:51.555Z,31.10
2018-05-06T04:10:22.247Z,31.10
2018-05-06T04:12:52.004Z,31.00
2018-05-06T04:15:22.240Z,30.90
2018-05-06T04:17:51.984Z,30.90
2018-05-06T04:20:22.380Z,30.90
2018-05-06T04:22:52.170Z,31.00
2018-05-06T04:25:23.063Z,31.30
2018-05-06T04:27:52.819Z,31.20
2018-05-06T04:30:22.748Z,31.50
2018-05-06T04:32:52.498Z,31.70
2018-05-06T04:35:22.328Z,31.90
2018-05-06T04:37:52.849Z,32.10
2018-05-06T04:40:24.326Z,32.00
2018-05-06T04:42:55.010Z,31.90
2018-05-06T04:45:24.774Z,31.90
2018-05-06T04:47:55.265Z,32.00
2018-05-06T04:50:25.031Z,32.10
2018-05-06T04:52:54.807Z,32.30
2018-05-06T04:55:25.524Z,32.90
2018-05-06T04:57:56.053Z,33.20
2018-05-06T05:00:25.810Z,33.20
2018-05-06T05:02:55.628Z,33.60
2018-05-06T05:05:25.340Z,33.70
2018-05-06T05:07:55.084Z,33.80
2018-05-06T05:10:25.977Z,34.00
2018-05-06T05:12:55.778Z,34.20
2018-05-06T05:15:26.639Z,34.40
2018-05-06T05:17:56.407Z,34.60
2018-05-06T05:20:27.132Z,34.40
2018-05-06T05:22:57.648Z,34.00
2018-05-06T05:25:28.267Z,34.00
2018-05-06T05:27:58.068Z,33.80
2018-05-06T05:30:27.824Z,33.30
2018-05-06T05:32:58.343Z,32.60
2018-05-06T05:35:28.142Z,32.60
2018-05-06T05:37:57.896Z,32.40
2018-05-06T05:40:27.640Z,32.20
2018-05-06T05:42:58.248Z,32.10
2018-05-06T05:45:28.178Z,31.90
2018-05-06T05:47:58.383Z,31.80
2018-05-06T05:50:29.255Z,31.70
2018-05-06T05:52:59.617Z,31.50
2018-05-06T05:55:31.051Z,31.20
2018-05-06T05:58:01.591Z,31.20
2018-05-06T06:00:32.091Z,31.20
2018-05-06T06:03:01.835Z,31.10
2018-05-06T06:05:32.356Z,31.20
2018-05-06T06:08:03.046Z,31.20
2018-05-06T06:10:32.811Z,31.20
2018-05-06T06:13:02.562Z,31.20
2018-05-06T06:15:32.331Z,31.20
2018-05-06T06:18:02.098Z,31.30
2018-05-06T06:20:32.687Z,31.30
2018-05-06T06:23:03.236Z,31.40
2018-05-06T06:25:33.015Z,31.60
2018-05-06T06:28:03.527Z,32.00
2018-05-06T06:30:34.752Z,32.30
2018-05-06T06:33:05.459Z,32.30
2018-05-06T06:35:36.428Z,32.80
2018-05-06T06:38:06.261Z,32.80
2018-05-06T06:40:36.784Z,33.20
2018-05-06T06:43:07.295Z,33.30
2018-05-06T06:45:37.066Z,33.30
2018-05-06T06:48:06.860Z,33.50
2018-05-06T06:50:37.411Z,33.40
2018-05-06T06:53:07.183Z,33.40
2018-05-06T06:55:37.865Z,33.20
2018-05-06T06:58:08.408Z,33.10
2018-05-06T07:00:39.184Z,33.10
2018-05-06T07:03:09.706Z,32.80
2018-05-06T07:05:40.258Z,32.80
2018-05-06T07:08:10.013Z,32.80
2018-05-06T07:10:39.763Z,32.80
2018-05-06T07:13:10.285Z,33.20
2018-05-06T07:15:40.795Z,33.40
2018-05-06T07:18:10.563Z,33.40
2018-05-06T07:20:40.306Z,33.60
2018-05-06T07:23:10.088Z,33.80
2018-05-06T07:25:39.835Z,33.90
2018-05-06T07:28:09.603Z,34.00
2018-05-06T07:30:39.406Z,34.00
2018-05-06T07:33:09.177Z,33.90
2018-05-06T07:35:39.145Z,33.90
2018-05-06T07:38:09.906Z,33.90
2018-05-06T07:40:39.652Z,33.90
2018-05-06T07:43:10.169Z,34.10
2018-05-06T07:45:40.728Z,34.10
2018-05-06T07:48:10.492Z,34.20
2018-05-06T07:50:40.248Z,34.20
2018-05-06T07:53:09.969Z,34.30
2018-05-06T07:55:39.808Z,34.40
2018-05-06T07:58:09.937Z,34.40
2018-05-06T08:00:39.690Z,34.40
2018-05-06T08:03:11.115Z,34.40
2018-05-06T08:05:40.874Z,34.40
2018-05-06T08:08:10.635Z,34.40
2018-05-06T08:10:40.493Z,34.40
2018-05-06T08:13:11.469Z,34.30
2018-05-06T08:15:41.465Z,34.30
2018-05-06T08:18:11.240Z,34.30
2018-05-06T08:20:41.870Z,34.20
2018-05-06T08:23:12.360Z,34.20
2018-05-06T08:25:42.139Z,34.10
2018-05-06T08:28:11.871Z,34.20
2018-05-06T08:30:41.648Z,34.20
2018-05-06T08:33:12.390Z,34.20
2018-05-06T08:35:42.108Z,34.20
2018-05-06T08:38:12.811Z,34.20
2018-05-06T08:40:43.314Z,34.20
2018-05-06T08:43:13.045Z,34.20
2018-05-06T08:45:43.613Z,34.20
2018-05-06T08:48:13.359Z,34.10
2018-05-06T08:50:43.324Z,34.10
2018-05-06T08:53:13.079Z,34.10
2018-05-06T08:55:43.808Z,34.00
2018-05-06T08:58:13.566Z,34.00
2018-05-06T09:00:44.059Z,34.10
2018-05-06T09:03:14.773Z,34.10
2018-05-06T09:05:44.579Z,34.20
2018-05-06T09:08:14.318Z,34.20
2018-05-06T09:10:44.234Z,34.40
2018-05-06T09:13:14.066Z,34.50
2018-05-06T09:15:45.012Z,34.70
2018-05-06T09:18:15.559Z,34.60
2018-05-06T09:20:46.546Z,34.70
2018-05-06T09:23:17.141Z,34.60
2018-05-06T09:25:46.887Z,34.60
2018-05-06T09:28:16.630Z,34.60
2018-05-06T09:30:48.280Z,34.50
2018-05-06T09:33:19.629Z,34.40
2018-05-06T09:35:50.174Z,34.40
2018-05-06T09:38:20.002Z,34.30
2018-05-06T09:40:51.088Z,34.20
2018-05-06T09:43:20.860Z,34.10
2018-05-06T09:45:50.700Z,33.90
2018-05-06T09:48:20.441Z,33.80
2018-05-06T09:50:51.011Z,33.40
2018-05-06T09:53:20.768Z,33.40
2018-05-06T09:55:50.516Z,33.30
2018-05-06T09:58:20.279Z,33.20
2018-05-06T10:00:50.084Z,33.10
2018-05-06T10:03:19.857Z,32.90
2018-05-06T10:05:50.371Z,32.90
2018-05-06T10:08:20.295Z,32.70
2018-05-06T10:10:51.083Z,32.70
2018-05-06T10:13:20.960Z,32.50
2018-05-06T10:15:50.743Z,32.40
2018-05-06T10:18:21.354Z,32.40
2018-05-06T10:20:52.104Z,32.30
2018-05-06T10:23:22.663Z,32.30
2018-05-06T10:25:52.447Z,32.30
2018-05-06T10:28:22.944Z,32.20
2018-05-06T10:30:52.844Z,32.20
2018-05-06T10:33:22.568Z,32.20
2018-05-06T10:35:52.326Z,32.10
2018-05-06T10:38:22.401Z,32.10
2018-05-06T10:40:53.803Z,32.00
2018-05-06T10:43:23.524Z,32.00
2018-05-06T10:45:53.335Z,32.00
2018-05-06T10:48:23.138Z,31.90
2018-05-06T10:50:52.856Z,31.90
2018-05-06T10:53:23.520Z,32.00
2018-05-06T10:55:53.290Z,31.90
2018-05-06T10:58:23.047Z,32.00
2018-05-06T11:00:53.425Z,32.00
2018-05-06T11:03:23.158Z,32.00
2018-05-06T11:05:52.953Z,32.00
2018-05-06T11:08:23.012Z,31.90
2018-05-06T11:10:52.783Z,31.90
2018-05-06T11:13:22.539Z,31.90
2018-05-06T11:15:52.307Z,31.90
2018-05-06T11:18:22.106Z,31.80
2018-05-06T11:20:51.919Z,31.80
2018-05-06T11:23:21.717Z,31.70
2018-05-06T11:25:51.457Z,31.60
2018-05-06T11:28:21.250Z,31.50
2018-05-06T11:30:51.932Z,31.30
2018-05-06T11:33:21.744Z,31.20
2018-05-06T11:35:51.532Z,31.20
2018-05-06T11:38:21.360Z,31.10
2018-05-06T11:40:51.443Z,31.00
2018-05-06T11:43:22.412Z,30.90
2018-05-06T11:45:52.164Z,30.80
2018-05-06T11:48:22.696Z,30.80
2018-05-06T11:50:53.236Z,30.70
2018-05-06T11:53:24.670Z,30.70
2018-05-06T11:55:55.232Z,30.60
2018-05-06T11:58:25.474Z,30.60
2018-05-06T12:00:55.320Z,30.50
2018-05-06T12:03:26.402Z,30.50
2018-05-06T12:05:56.185Z,30.40
2018-05-06T12:08:26.742Z,30.40
2018-05-06T12:10:56.489Z,30.40
2018-05-06T12:13:26.255Z,30.30
2018-05-06T12:15:56.106Z,30.30
2018-05-06T12:18:25.906Z,30.20
2018-05-06T12:20:55.721Z,30.20
2018-05-06T12:23:26.513Z,30.10
2018-05-06T12:29:27.528Z,30.10
2018-05-06T12:31:57.276Z,30.10
2018-05-06T12:34:27.857Z,30.00
2018-05-06T12:36:58.468Z,30.00
2018-05-06T12:39:28.255Z,30.00
2018-05-06T12:41:58.323Z,29.90
2018-05-06T12:44:28.074Z,29.80
2018-05-06T12:46:58.838Z,29.80
2018-05-06T12:49:30.596Z,29.70
2018-05-06T12:52:00.355Z,29.80
2018-05-06T12:54:30.152Z,29.80
2018-05-06T12:56:59.950Z,29.80
2018-05-06T12:59:29.757Z,29.70
2018-05-06T13:01:59.565Z,29.70
2018-05-06T13:04:29.368Z,29.70
2018-05-06T13:06:59.171Z,29.60
2018-05-06T13:09:28.959Z,29.60
2018-05-06T13:12:00.560Z,29.50
2018-05-06T13:14:30.308Z,29.50
2018-05-06T13:17:00.090Z,29.50
2018-05-06T13:19:29.930Z,29.50
2018-05-06T13:21:59.740Z,29.50
2018-05-06T13:24:29.477Z,29.50
2018-05-06T13:27:00.111Z,29.50
2018-05-06T13:29:30.710Z,29.60
2018-05-06T13:32:00.600Z,29.60
2018-05-06T13:34:30.950Z,29.60
2018-05-06T13:37:00.720Z,29.70
2018-05-06T13:39:30.498Z,29.70
2018-05-06T13:42:01.019Z,29.70
2018-05-06T13:44:32.891Z,29.70
2018-05-06T13:47:03.642Z,29.60
2018-05-06T13:49:33.446Z,29.60
2018-05-06T13:52:03.233Z,29.60
2018-05-06T13:54:33.041Z,29.50
2018-05-06T13:57:02.967Z,29.50
2018-05-06T13:59:33.505Z,29.40
2018-05-06T14:02:03.998Z,29.50
2018-05-06T14:04:33.749Z,29.50
2018-05-06T14:07:04.260Z,29.50
2018-05-06T14:09:35.738Z,29.50
2018-05-06T14:12:05.555Z,29.50
2018-05-06T14:14:35.312Z,29.50
2018-05-06T14:17:05.076Z,29.40
2018-05-06T14:19:34.849Z,29.40
2018-05-06T14:22:04.603Z,29.40
2018-05-06T14:24:34.390Z,29.40
2018-05-06T14:27:04.958Z,29.40
2018-05-06T14:29:34.778Z,29.30
2018-05-06T14:32:04.603Z,29.40
2018-05-06T14:34:34.401Z,29.30
2018-05-06T14:37:04.222Z,29.30
2018-05-06T14:39:34.135Z,29.30
2018-05-06T14:42:03.901Z,29.30
2018-05-06T14:44:34.436Z,29.30
2018-05-06T14:47:15.504Z,29.20
2018-05-06T14:49:46.036Z,29.20
2018-05-06T14:52:16.553Z,29.20
2018-05-06T14:54:47.118Z,29.20
2018-05-06T14:57:16.879Z,29.20
2018-05-06T14:59:46.875Z,29.20
2018-05-06T15:02:16.681Z,29.30
2018-05-06T15:04:46.457Z,29.30
2018-05-06T15:07:16.394Z,29.30
2018-05-06T15:09:46.173Z,29.30
2018-05-06T15:12:16.984Z,29.30
2018-05-06T15:14:46.755Z,29.20
2018-05-06T15:17:16.560Z,29.10
2018-05-06T15:19:47.383Z,29.10
2018-05-06T15:22:17.108Z,29.10
2018-05-06T15:24:48.412Z,29.10
2018-05-06T15:27:18.983Z,29.10
2018-05-06T15:29:48.736Z,29.10
2018-05-06T15:32:19.293Z,29.10
2018-05-06T15:34:49.807Z,29.10
2018-05-06T15:37:20.326Z,29.10
2018-05-06T15:39:50.150Z,29.10
2018-05-06T15:42:20.782Z,29.10
2018-05-06T15:44:51.360Z,29.10
2018-05-06T15:47:21.158Z,29.10
2018-05-06T15:49:51.759Z,29.00
2018-05-06T15:52:22.391Z,29.00
2018-05-06T15:54:52.916Z,29.00
2018-05-06T15:57:23.480Z,29.00
2018-05-06T15:59:53.269Z,29.00
2018-05-06T16:05:15.626Z,29.10
2018-05-06T16:07:46.221Z,29.10
2018-05-06T16:10:16.071Z,29.10
2018-05-06T16:12:45.883Z,29.00
2018-05-06T16:15:17.079Z,28.90
2018-05-06T16:17:47.002Z,28.90
2018-05-06T16:20:16.876Z,28.90
2018-05-06T16:22:46.633Z,29.00
2018-05-06T16:25:18.184Z,29.10
2018-05-06T16:27:47.989Z,29.10
2018-05-06T16:30:17.763Z,29.10
2018-05-06T16:32:47.486Z,29.10
2018-05-06T16:35:17.236Z,29.00
2018-05-06T16:37:47.201Z,28.90
2018-05-06T16:40:17.521Z,28.90
2018-05-06T16:42:47.632Z,28.80
2018-05-06T16:45:18.658Z,28.90
2018-05-06T16:47:49.293Z,28.90
2018-05-06T16:50:19.094Z,28.90
2018-05-06T16:52:49.661Z,29.00
2018-05-06T16:55:19.431Z,29.00
2018-05-06T16:57:49.988Z,29.00
2018-05-06T17:00:19.803Z,29.00
2018-05-06T17:02:49.566Z,29.00
2018-05-06T17:05:19.370Z,29.00
2018-05-06T17:07:50.136Z,29.00
2018-05-06T17:10:20.827Z,29.10
2018-05-06T17:12:50.694Z,29.10
2018-05-06T17:15:20.455Z,29.10
2018-05-06T17:17:50.262Z,29.10
2018-05-06T17:20:20.062Z,29.10
2018-05-06T17:22:49.838Z,29.10
2018-05-06T17:25:20.610Z,29.10
2018-05-06T17:27:50.597Z,29.10
2018-05-06T17:30:21.000Z,29.10
2018-05-06T17:32:51.508Z,29.20
2018-05-06T17:35:21.297Z,29.10
2018-05-06T17:37:51.075Z,29.20
2018-05-06T17:40:20.886Z,29.20
2018-05-06T17:42:50.669Z,29.20
2018-05-06T17:45:21.452Z,29.30
2018-05-06T17:47:51.250Z,29.20
2018-05-06T17:50:21.063Z,29.30
2018-05-06T17:52:51.798Z,29.30
2018-05-06T17:55:21.600Z,29.30
2018-05-06T17:57:51.366Z,29.30
2018-05-06T18:00:21.882Z,29.30
2018-05-06T18:02:51.689Z,29.30
2018-05-06T18:05:22.386Z,29.20
2018-05-06T18:07:52.293Z,29.20
2018-05-06T18:10:22.157Z,29.20
2018-05-06T18:12:53.054Z,29.30
2018-05-06T18:15:22.862Z,29.30
2018-05-06T18:17:53.764Z,29.30
2018-05-06T18:20:23.516Z,29.30
2018-05-06T18:22:53.401Z,29.30
2018-05-06T18:25:23.933Z,29.30
2018-05-06T18:27:54.466Z,29.30
2018-05-06T18:30:25.995Z,29.20
2018-05-06T18:32:55.777Z,29.20
2018-05-06T18:35:25.562Z,29.20
2018-05-06T18:37:55.323Z,29.10
2018-05-06T18:40:25.222Z,29.10
2018-05-06T18:42:55.199Z,29.00
2018-05-06T18:45:24.969Z,29.00
2018-05-06T18:47:54.739Z,29.00
2018-05-06T18:50:24.489Z,29.00
2018-05-06T18:52:55.000Z,29.00
2018-05-06T18:55:24.805Z,28.90
2018-05-06T18:57:54.638Z,29.00
2018-05-06T19:00:25.726Z,29.00
2018-05-06T19:02:55.516Z,29.00
2018-05-06T19:05:25.334Z,29.00
2018-05-06T19:07:56.086Z,29.00
2018-05-06T19:10:26.716Z,29.00
2018-05-06T19:12:56.491Z,29.00
2018-05-06T19:15:27.952Z,29.00
2018-05-06T19:17:58.528Z,29.00
2018-05-06T19:20:28.297Z,28.90
2018-05-06T19:22:58.826Z,29.00
2018-05-06T19:25:29.354Z,29.00
2018-05-06T19:27:59.906Z,29.00
2018-05-06T19:30:29.732Z,29.00
2018-05-06T19:32:59.572Z,29.00
2018-05-06T19:35:29.687Z,29.00
2018-05-06T19:37:59.454Z,29.00
2018-05-06T19:40:29.230Z,28.90
2018-05-06T19:42:58.990Z,28.90
2018-05-06T19:45:30.043Z,28.90
2018-05-06T19:47:59.814Z,28.90
2018-05-06T19:50:30.346Z,29.00
2018-05-06T19:53:00.917Z,29.00
2018-05-06T19:55:30.726Z,29.00
2018-05-06T19:58:00.494Z,29.00
2018-05-06T20:00:31.060Z,29.00
2018-05-06T20:03:01.712Z,29.00
2018-05-06T20:05:31.476Z,29.00
2018-05-06T20:08:02.084Z,29.00
2018-05-06T20:10:32.654Z,29.00
2018-05-06T20:13:02.474Z,29.00
2018-05-06T20:15:32.254Z,29.00
2018-05-06T20:18:02.800Z,29.00
2018-05-06T20:20:32.634Z,29.00
2018-05-06T20:23:02.557Z,28.90
2018-05-06T20:25:32.386Z,28.80
2018-05-06T20:28:02.152Z,28.70
2018-05-06T20:30:31.953Z,28.60
2018-05-06T20:33:01.738Z,28.60
2018-05-06T20:35:31.510Z,28.50
2018-05-06T20:38:01.251Z,28.50
2018-05-06T20:40:31.027Z,28.50
2018-05-06T20:43:00.796Z,28.50
2018-05-06T20:45:31.308Z,28.40
2018-05-06T20:48:01.142Z,28.40
2018-05-06T20:50:31.690Z,28.40
2018-05-06T20:53:01.436Z,28.40
2018-05-06T20:55:31.245Z,28.40
2018-05-06T20:58:01.018Z,28.40
2018-05-06T21:00:31.073Z,28.40
2018-05-06T21:03:01.936Z,28.30
2018-05-06T21:05:31.685Z,28.30
2018-05-06T21:08:01.461Z,28.30
2018-05-06T21:10:31.485Z,28.30
2018-05-06T21:13:01.542Z,28.30
2018-05-06T21:15:31.682Z,28.30
2018-05-06T21:18:02.721Z,28.30
2018-05-06T21:20:33.284Z,28.10
2018-05-06T21:23:03.059Z,28.10
2018-05-06T21:25:32.864Z,28.10
2018-05-06T21:28:02.669Z,28.10
2018-05-06T21:30:32.558Z,28.10
2018-05-06T21:33:03.279Z,28.10
2018-05-06T21:35:33.785Z,28.10
2018-05-06T21:38:03.524Z,28.10
2018-05-06T21:40:34.290Z,28.10
2018-05-06T21:43:04.082Z,28.10
2018-05-06T21:45:34.693Z,28.10
2018-05-06T21:48:05.229Z,28.10
2018-05-06T21:50:35.781Z,28.10
2018-05-06T21:53:05.647Z,28.10
2018-05-06T21:55:35.515Z,28.10
2018-05-06T21:58:05.290Z,28.10
2018-05-06T22:00:35.854Z,28.10
2018-05-06T22:03:05.747Z,28.10
2018-05-06T22:05:36.284Z,28.10
2018-05-06T22:08:07.046Z,28.10
2018-05-06T22:10:37.850Z,28.10
2018-05-06T22:13:08.530Z,28.10
2018-05-06T22:15:38.634Z,28.10
2018-05-06T22:18:08.394Z,28.10
2018-05-06T22:20:38.226Z,28.10
2018-05-06T22:23:07.987Z,28.00
2018-05-06T22:25:37.766Z,28.10
2018-05-06T22:28:08.399Z,28.00
2018-05-06T22:30:38.283Z,28.00
2018-05-06T22:33:09.746Z,27.90
2018-05-06T22:35:39.696Z,27.90
2018-05-06T22:38:09.505Z,27.90
2018-05-06T22:40:39.279Z,27.90
2018-05-06T22:43:09.038Z,27.90
2018-05-06T22:45:38.899Z,27.90
2018-05-06T22:48:09.399Z,27.90
2018-05-06T22:50:39.184Z,27.90
2018-05-06T22:53:08.991Z,27.90
2018-05-06T22:55:38.718Z,27.90
2018-05-06T22:58:08.500Z,27.80
2018-05-06T23:00:38.329Z,27.80
2018-05-06T23:03:08.131Z,27.80
2018-05-06T23:05:37.973Z,27.80
2018-05-06T23:08:08.692Z,27.80
2018-05-06T23:10:38.477Z,27.90
2018-05-06T23:13:08.237Z,27.90
2018-05-06T23:15:39.122Z,28.00
2018-05-06T23:18:08.907Z,27.90
2018-05-06T23:20:39.899Z,27.90
2018-05-06T23:23:09.645Z,27.90
2018-05-06T23:25:39.409Z,28.00
2018-05-06T23:28:09.172Z,27.90
2018-05-06T23:30:39.717Z,28.00
2018-05-06T23:33:10.216Z,27.90
2018-05-06T23:35:40.100Z,27.90
2018-05-06T23:38:09.911Z,27.90
2018-05-06T23:40:39.649Z,27.90
2018-05-06T23:43:09.562Z,27.90
2018-05-06T23:45:39.627Z,27.90
2018-05-06T23:48:09.737Z,28.00
2018-05-06T23:50:40.817Z,28.10
2018-05-06T23:53:10.604Z,28.10
2018-05-06T23:55:40.402Z,28.10
2018-05-06T23:58:10.247Z,28.10
